createdAt,value
2023-04-30T00:01:41.085Z,13.50
2023-04-30T00:04:43.849Z,13.48
2023-04-30T00:07:46.567Z,13.47
2023-04-30T00:10:49.472Z,13.47
2023-04-30T00:13:52.327Z,13.47
2023-04-30T00:16:54.972Z,13.44
2023-04-30T00:19:57.514Z,13.44
2023-04-30T00:23:00.336Z,13.43
2023-04-30T00:26:02.798Z,13.41
2023-04-30T00:29:05.507Z,13.36
2023-04-30T00:32:07.917Z,13.32
2023-04-30T00:35:11.592Z,13.32
2023-04-30T00:38:14.033Z,13.30
2023-04-30T00:41:16.977Z,13.27
2023-04-30T00:44:19.548Z,13.22
2023-04-30T00:47:22.427Z,13.15
2023-04-30T00:50:25.122Z,13.15
2023-04-30T00:53:27.918Z,13.15
2023-04-30T00:56:31.265Z,13.15
2023-04-30T00:59:34.066Z,13.10
2023-04-30T01:02:36.890Z,13.06
2023-04-30T01:05:39.707Z,13.03
2023-04-30T01:08:42.068Z,13.05
2023-04-30T01:12:03.730Z,13.05
2023-04-30T01:15:29.727Z,13.06
2023-04-30T01:18:37.774Z,13.02
2023-04-30T01:21:42.262Z,12.98
2023-04-30T01:25:03.966Z,13.00
2023-04-30T01:28:10.167Z,12.93
2023-04-30T01:31:14.977Z,12.95
2023-04-30T01:34:17.540Z,12.89
2023-04-30T01:37:33.840Z,12.78
2023-04-30T01:40:48.522Z,12.88
2023-04-30T01:44:26.157Z,12.91
2023-04-30T01:47:37.869Z,12.82
2023-04-30T01:50:51.524Z,12.81
2023-04-30T01:53:57.576Z,12.83
2023-04-30T01:57:06.610Z,12.70
2023-04-30T02:00:11.945Z,12.68
2023-04-30T02:03:17.778Z,12.71
2023-04-30T02:06:20.665Z,12.84
2023-04-30T02:09:24.548Z,12.71
2023-04-30T02:12:30.349Z,12.66
2023-04-30T02:15:33.148Z,12.66
2023-04-30T02:18:35.864Z,12.54
2023-04-30T02:21:38.617Z,12.47
2023-04-30T02:24:41.063Z,12.42
2023-04-30T02:27:43.767Z,12.39
2023-04-30T02:30:46.202Z,12.18
2023-04-30T02:33:49.337Z,12.18
2023-04-30T02:36:51.788Z,12.12
2023-04-30T02:39:55.104Z,12.09
2023-04-30T02:43:01.541Z,11.99
2023-04-30T02:46:04.314Z,11.93
2023-04-30T02:49:06.831Z,11.93
2023-04-30T02:52:10.211Z,11.91
2023-04-30T02:55:13.670Z,11.82
2023-04-30T02:58:16.426Z,11.76
2023-04-30T03:01:19.055Z,11.62
2023-04-30T03:04:21.906Z,11.42
2023-04-30T03:07:24.276Z,11.39
2023-04-30T03:10:27.027Z,11.39
2023-04-30T03:13:29.659Z,11.33
2023-04-30T03:16:32.470Z,11.20
2023-04-30T03:19:34.889Z,11.19
2023-04-30T03:22:39.140Z,11.10
2023-04-30T03:25:41.567Z,10.95
2023-04-30T03:28:44.258Z,10.93
2023-04-30T03:31:46.734Z,10.96
2023-04-30T03:34:49.514Z,10.97
2023-04-30T03:37:51.961Z,10.91
2023-04-30T03:40:54.646Z,10.89
2023-04-30T03:43:57.009Z,10.74
2023-04-30T03:46:59.790Z,10.84
2023-04-30T03:50:03.974Z,10.84
2023-04-30T03:53:06.659Z,10.95
2023-04-30T03:56:09.659Z,10.99
2023-04-30T03:59:12.480Z,10.99
2023-04-30T04:02:16.788Z,11.02
2023-04-30T04:05:19.711Z,10.97
2023-04-30T04:08:22.516Z,10.87
2023-04-30T04:11:25.356Z,10.85
2023-04-30T04:14:28.282Z,10.88
2023-04-30T04:17:31.337Z,10.78
2023-04-30T04:20:33.736Z,10.75
2023-04-30T04:23:36.464Z,10.70
2023-04-30T04:26:38.966Z,10.70
2023-04-30T04:29:43.263Z,10.69
2023-04-30T04:32:50.588Z,10.67
2023-04-30T04:35:53.780Z,10.65
2023-04-30T04:39:05.909Z,10.70
2023-04-30T04:42:08.679Z,10.80
2023-04-30T04:45:11.356Z,10.73
2023-04-30T04:48:15.407Z,10.70
2023-04-30T04:51:17.928Z,10.82
2023-04-30T04:54:21.481Z,10.78
2023-04-30T04:57:24.295Z,10.90
2023-04-30T05:00:27.702Z,10.91
2023-04-30T05:03:31.557Z,11.02
2023-04-30T05:06:34.607Z,11.10
2023-04-30T05:09:37.088Z,11.04
2023-04-30T05:12:39.939Z,11.18
2023-04-30T05:15:42.410Z,11.16
2023-04-30T05:18:45.255Z,11.16
2023-04-30T05:21:47.698Z,11.24
2023-04-30T05:24:51.646Z,11.25
2023-04-30T05:27:54.012Z,11.40
2023-04-30T05:30:56.678Z,11.42
2023-04-30T05:33:59.028Z,11.49
2023-04-30T05:37:01.865Z,11.49
2023-04-30T05:40:06.543Z,11.57
2023-04-30T05:43:09.457Z,11.64
2023-04-30T05:46:11.907Z,11.65
2023-04-30T05:49:15.244Z,11.63
2023-04-30T05:52:17.813Z,11.64
2023-04-30T05:55:20.558Z,11.55
2023-04-30T05:58:23.097Z,11.78
2023-04-30T06:01:26.009Z,11.86
2023-04-30T06:04:29.018Z,11.63
2023-04-30T06:07:31.938Z,11.60
2023-04-30T06:10:34.548Z,11.62
2023-04-30T06:13:37.325Z,11.73
2023-04-30T06:16:39.830Z,11.69
2023-04-30T06:19:42.548Z,11.88
2023-04-30T06:22:44.892Z,12.09
2023-04-30T06:25:47.771Z,12.41
2023-04-30T06:28:50.184Z,12.75
2023-04-30T06:31:53.161Z,13.05
2023-04-30T06:34:56.053Z,13.36
2023-04-30T06:37:59.887Z,13.96
2023-04-30T06:41:02.375Z,14.24
2023-04-30T06:44:05.496Z,14.60
2023-04-30T06:47:07.909Z,14.81
2023-04-30T06:50:11.047Z,14.85
2023-04-30T06:53:17.226Z,14.04
2023-04-30T06:56:22.255Z,13.86
2023-04-30T06:59:25.032Z,14.10
2023-04-30T07:02:27.956Z,14.78
2023-04-30T07:05:32.189Z,15.22
2023-04-30T07:08:34.907Z,15.43
2023-04-30T07:11:37.738Z,15.34
2023-04-30T07:14:40.190Z,15.93
2023-04-30T07:17:43.231Z,15.76
2023-04-30T07:20:45.921Z,15.58
2023-04-30T07:23:49.009Z,15.47
2023-04-30T07:26:51.741Z,15.72
2023-04-30T07:29:55.477Z,15.98
2023-04-30T07:32:58.289Z,16.39
2023-04-30T07:36:01.203Z,16.37
2023-04-30T07:39:03.834Z,16.50
2023-04-30T07:42:07.142Z,16.24
2023-04-30T07:45:09.943Z,15.92
2023-04-30T07:48:12.713Z,16.05
2023-04-30T07:51:15.414Z,15.87
2023-04-30T07:54:18.585Z,16.20
2023-04-30T07:57:21.025Z,16.15
2023-04-30T08:00:23.853Z,16.44
2023-04-30T08:03:26.393Z,17.00
2023-04-30T08:06:29.414Z,16.62
2023-04-30T08:09:31.980Z,16.88
2023-04-30T08:12:37.337Z,17.09
2023-04-30T08:15:40.473Z,17.10
2023-04-30T08:18:45.173Z,17.58
2023-04-30T08:21:47.728Z,17.97
2023-04-30T08:24:50.700Z,17.98
2023-04-30T08:27:54.060Z,17.43
2023-04-30T08:30:56.707Z,17.74
2023-04-30T08:33:59.136Z,18.02
2023-04-30T08:37:02.281Z,17.32
2023-04-30T08:40:05.543Z,17.10
2023-04-30T08:43:09.844Z,17.24
2023-04-30T08:46:17.398Z,17.59
2023-04-30T08:49:23.986Z,18.24
2023-04-30T08:52:29.541Z,18.43
2023-04-30T08:55:34.919Z,18.47
2023-04-30T08:58:38.060Z,18.84
2023-04-30T09:01:41.756Z,18.85
2023-04-30T09:04:44.829Z,19.07
2023-04-30T09:10:53.347Z,19.53
2023-04-30T09:13:59.629Z,19.44
2023-04-30T09:17:02.558Z,18.84
2023-04-30T09:20:12.994Z,18.93
2023-04-30T09:23:15.757Z,19.34
2023-04-30T09:26:22.425Z,19.66
2023-04-30T09:29:37.125Z,19.86
2023-04-30T09:32:55.754Z,19.16
2023-04-30T09:35:58.561Z,19.40
2023-04-30T09:39:11.414Z,19.02
2023-04-30T09:42:15.406Z,19.48
2023-04-30T09:45:18.263Z,19.52
2023-04-30T09:48:25.960Z,19.37
2023-04-30T09:51:29.318Z,19.02
2023-04-30T09:54:32.738Z,19.04
2023-04-30T09:57:37.941Z,19.30
2023-04-30T10:00:41.182Z,19.49
2023-04-30T10:03:44.329Z,19.59
2023-04-30T10:06:47.176Z,19.51
2023-04-30T10:09:52.388Z,18.83
2023-04-30T10:12:58.550Z,19.00
2023-04-30T10:16:08.502Z,18.99
2023-04-30T10:19:15.606Z,19.07
2023-04-30T10:22:19.083Z,19.05
2023-04-30T10:25:23.373Z,19.08
2023-04-30T10:28:26.275Z,19.43
2023-04-30T10:31:29.694Z,19.42
2023-04-30T10:34:59.585Z,18.98
2023-04-30T10:38:07.115Z,19.27
2023-04-30T10:41:10.340Z,19.33
2023-04-30T10:44:13.102Z,19.01
2023-04-30T10:47:19.603Z,19.00
2023-04-30T10:50:24.194Z,18.84
2023-04-30T10:53:31.600Z,19.02
2023-04-30T10:56:35.056Z,19.17
2023-04-30T10:59:38.028Z,19.01
2023-04-30T11:02:44.285Z,19.24
2023-04-30T11:05:47.411Z,18.89
2023-04-30T11:08:49.992Z,19.05
2023-04-30T11:12:03.859Z,19.40
2023-04-30T11:15:14.493Z,20.07
2023-04-30T11:18:19.275Z,19.98
2023-04-30T11:21:21.984Z,20.10
2023-04-30T11:24:54.428Z,19.63
2023-04-30T11:27:57.188Z,19.81
2023-04-30T11:31:01.543Z,19.82
2023-04-30T11:34:05.372Z,19.92
2023-04-30T11:37:16.467Z,20.23
2023-04-30T11:40:20.429Z,19.90
2023-04-30T11:43:31.593Z,19.83
2023-04-30T11:46:34.450Z,19.80
2023-04-30T11:49:38.607Z,19.76
2023-04-30T11:52:42.538Z,20.17
2023-04-30T11:55:45.820Z,20.03
2023-04-30T11:58:49.830Z,19.81
2023-04-30T12:01:54.431Z,19.99
2023-04-30T12:04:57.369Z,20.30
2023-04-30T12:08:04.927Z,20.05
2023-04-30T12:11:20.223Z,19.65
2023-04-30T12:14:25.595Z,19.45
2023-04-30T12:17:36.013Z,18.95
2023-04-30T12:20:40.051Z,19.16
2023-04-30T12:23:42.753Z,19.41
2023-04-30T12:26:46.362Z,19.36
2023-04-30T12:29:51.058Z,19.38
2023-04-30T12:32:57.881Z,19.80
2023-04-30T12:36:01.211Z,19.94
2023-04-30T12:39:09.697Z,19.85
2023-04-30T12:42:12.381Z,19.61
2023-04-30T12:46:07.475Z,19.53
2023-04-30T12:49:11.610Z,19.70
2023-04-30T12:52:15.681Z,19.76
2023-04-30T12:55:21.800Z,19.66
2023-04-30T12:58:31.282Z,19.64
2023-04-30T13:01:45.398Z,19.33
2023-04-30T13:04:48.312Z,19.60
2023-04-30T13:08:02.128Z,19.06
2023-04-30T13:11:04.951Z,18.63
2023-04-30T13:14:07.721Z,19.01
2023-04-30T13:17:12.648Z,18.94
2023-04-30T13:20:16.596Z,18.85
2023-04-30T13:23:19.592Z,19.09
2023-04-30T13:26:23.693Z,19.11
2023-04-30T13:29:26.693Z,18.81
2023-04-30T13:32:29.606Z,19.09
2023-04-30T13:35:32.191Z,19.07
2023-04-30T13:38:35.085Z,19.00
2023-04-30T13:41:37.629Z,18.91
2023-04-30T13:44:40.787Z,19.17
2023-04-30T13:47:43.407Z,18.98
2023-04-30T13:50:46.565Z,19.09
2023-04-30T13:53:49.041Z,18.95
2023-04-30T13:56:51.968Z,18.75
2023-04-30T13:59:54.659Z,18.72
2023-04-30T14:02:57.851Z,18.48
2023-04-30T14:06:00.539Z,18.56
2023-04-30T14:09:03.425Z,18.44
2023-04-30T14:12:05.889Z,18.63
2023-04-30T14:15:10.519Z,18.49
2023-04-30T14:18:14.464Z,18.63
2023-04-30T14:21:17.786Z,18.69
2023-04-30T14:24:20.680Z,18.67
2023-04-30T14:27:23.764Z,18.57
2023-04-30T14:30:27.970Z,18.00
2023-04-30T14:33:34.315Z,17.97
2023-04-30T14:36:37.184Z,17.72
2023-04-30T14:39:40.153Z,17.78
2023-04-30T14:42:43.268Z,17.94
2023-04-30T14:45:46.546Z,17.91
2023-04-30T14:48:49.160Z,17.96
2023-04-30T14:51:54.830Z,18.04
2023-04-30T14:54:58.044Z,18.09
2023-04-30T14:58:01.257Z,18.13
2023-04-30T15:01:03.973Z,18.30
2023-04-30T15:04:10.046Z,17.99
2023-04-30T15:07:12.789Z,17.96
2023-04-30T15:10:15.643Z,17.97
2023-04-30T15:13:18.594Z,17.97
2023-04-30T15:16:22.249Z,17.87
2023-04-30T15:19:25.056Z,17.81
2023-04-30T15:22:28.102Z,17.65
2023-04-30T15:25:30.761Z,17.11
2023-04-30T15:28:33.885Z,17.19
2023-04-30T15:31:36.659Z,16.89
2023-04-30T15:34:39.908Z,16.76
2023-04-30T15:37:42.456Z,16.88
2023-04-30T15:40:45.889Z,16.84
2023-04-30T15:43:48.407Z,16.81
2023-04-30T15:46:52.036Z,16.92
2023-04-30T15:49:55.206Z,17.03
2023-04-30T15:52:59.804Z,16.65
2023-04-30T15:56:04.802Z,16.68
2023-04-30T15:59:08.081Z,16.81
2023-04-30T16:02:10.942Z,16.65
2023-04-30T16:05:14.424Z,16.72
2023-04-30T16:08:17.042Z,16.64
2023-04-30T16:11:24.170Z,16.30
2023-04-30T16:14:26.752Z,16.12
2023-04-30T16:17:33.106Z,16.06
2023-04-30T16:20:37.962Z,16.07
2023-04-30T16:23:41.538Z,16.13
2023-04-30T16:26:45.383Z,15.84
2023-04-30T16:29:48.846Z,15.83
2023-04-30T16:32:51.692Z,16.04
2023-04-30T16:35:55.389Z,16.11
2023-04-30T16:38:58.257Z,16.28
2023-04-30T16:42:03.087Z,16.18
2023-04-30T16:45:06.291Z,16.00
2023-04-30T16:48:09.338Z,15.79
2023-04-30T16:51:12.224Z,15.99
2023-04-30T16:54:15.194Z,15.93
2023-04-30T16:57:17.944Z,16.07
2023-04-30T17:00:22.107Z,15.93
2023-04-30T17:03:25.021Z,15.95
2023-04-30T17:06:28.164Z,15.84
2023-04-30T17:09:31.677Z,15.66
2023-04-30T17:12:35.546Z,15.61
2023-04-30T17:15:38.043Z,15.56
2023-04-30T17:18:42.408Z,15.41
2023-04-30T17:21:45.681Z,15.25
2023-04-30T17:24:49.098Z,15.15
2023-04-30T17:27:52.307Z,15.07
2023-04-30T17:30:56.814Z,14.95
2023-04-30T17:34:00.612Z,14.68
2023-04-30T17:37:05.107Z,14.44
2023-04-30T17:40:11.370Z,14.30
2023-04-30T17:43:16.504Z,14.05
2023-04-30T17:46:20.078Z,14.05
2023-04-30T17:49:23.811Z,13.99
2023-04-30T17:52:29.962Z,13.96
2023-04-30T17:55:33.386Z,13.89
2023-04-30T17:58:39.811Z,13.60
2023-04-30T18:01:44.688Z,13.54
2023-04-30T18:04:48.252Z,13.39
2023-04-30T18:07:51.342Z,13.20
2023-04-30T18:10:55.992Z,13.11
2023-04-30T18:13:59.152Z,13.01
2023-04-30T18:17:01.891Z,12.91
2023-04-30T18:20:05.738Z,12.74
2023-04-30T18:23:10.233Z,12.58
2023-04-30T18:26:13.211Z,12.43
2023-04-30T18:29:17.706Z,12.22
2023-04-30T18:32:21.535Z,12.08
2023-04-30T18:35:24.844Z,11.91
2023-04-30T18:38:30.987Z,11.70
2023-04-30T18:41:34.606Z,11.55
2023-04-30T18:44:38.127Z,11.44
2023-04-30T18:47:41.876Z,11.28
2023-04-30T18:50:46.348Z,11.16
2023-04-30T18:53:52.250Z,11.02
2023-04-30T18:56:56.287Z,10.80
2023-04-30T18:59:59.448Z,10.69
2023-04-30T19:03:03.226Z,10.51
2023-04-30T19:06:06.539Z,10.38
2023-04-30T19:09:09.758Z,10.23
2023-04-30T19:12:12.557Z,10.11
2023-04-30T19:15:16.356Z,9.98
2023-04-30T19:18:20.908Z,9.78
2023-04-30T19:21:26.516Z,9.72
2023-04-30T19:24:30.326Z,9.48
2023-04-30T19:27:34.772Z,9.39
2023-04-30T19:30:39.593Z,9.27
2023-04-30T19:33:43.438Z,9.13
2023-04-30T19:36:46.598Z,8.85
2023-04-30T19:39:51.725Z,8.73
2023-04-30T19:42:55.229Z,8.53
2023-04-30T19:46:00.308Z,8.41
2023-04-30T19:49:04.828Z,8.37
2023-04-30T19:52:08.850Z,8.37
2023-04-30T19:55:12.848Z,8.25
2023-04-30T19:58:17.418Z,8.21
2023-04-30T20:01:20.796Z,8.10
2023-04-30T20:04:27.408Z,7.99
2023-04-30T20:07:31.351Z,7.84
2023-04-30T20:10:37.684Z,7.83
2023-04-30T20:13:41.625Z,7.65
2023-04-30T20:16:46.661Z,7.38
2023-04-30T20:19:50.813Z,7.42
2023-04-30T20:22:56.282Z,7.36
2023-04-30T20:25:59.793Z,7.26
2023-04-30T20:29:03.393Z,7.04
2023-04-30T20:32:07.661Z,7.10
2023-04-30T20:35:12.404Z,7.03
2023-04-30T20:38:19.675Z,6.96
2023-04-30T20:41:23.370Z,6.86
2023-04-30T20:44:27.162Z,6.79
2023-04-30T20:47:31.262Z,6.72
2023-04-30T20:50:34.071Z,6.72
2023-04-30T20:53:38.354Z,6.64
2023-04-30T20:56:41.011Z,6.50
2023-04-30T20:59:44.735Z,6.41
2023-04-30T21:02:47.760Z,6.27
2023-04-30T21:05:51.041Z,6.24
2023-04-30T21:08:53.617Z,6.24
2023-04-30T21:11:58.992Z,6.18
2023-04-30T21:15:01.687Z,6.14
2023-04-30T21:18:04.591Z,6.09
2023-04-30T21:21:09.527Z,6.08
2023-04-30T21:24:12.311Z,5.98
2023-04-30T21:27:14.930Z,5.94
2023-04-30T21:30:20.256Z,5.93
2023-04-30T21:33:22.823Z,5.85
2023-04-30T21:36:25.837Z,5.79
2023-04-30T21:39:30.196Z,5.69
2023-04-30T21:42:33.455Z,5.66
2023-04-30T21:45:36.025Z,5.63
2023-04-30T21:48:38.876Z,5.60
2023-04-30T21:51:42.016Z,5.58
2023-04-30T21:54:46.354Z,5.52
2023-04-30T21:57:51.364Z,5.44
2023-04-30T22:00:55.126Z,5.44
2023-04-30T22:03:58.261Z,5.33
2023-04-30T22:07:01.342Z,5.32
2023-04-30T22:10:05.391Z,5.32
2023-04-30T22:13:09.422Z,5.22
2023-04-30T22:16:12.477Z,5.20
2023-04-30T22:19:15.371Z,5.12
2023-04-30T22:22:17.996Z,5.16
2023-04-30T22:25:22.359Z,5.13
2023-04-30T22:28:24.885Z,5.09
2023-04-30T22:31:27.774Z,5.03
2023-04-30T22:34:30.756Z,5.01
2023-04-30T22:37:35.142Z,4.91
2023-04-30T22:40:42.198Z,4.85
2023-04-30T22:43:49.246Z,4.75
2023-04-30T22:46:51.757Z,4.67
2023-04-30T22:49:58.295Z,4.66
2023-04-30T22:53:01.022Z,4.62
2023-04-30T22:56:04.061Z,4.55
2023-04-30T22:59:06.881Z,4.52
2023-04-30T23:02:10.980Z,4.46
2023-04-30T23:05:13.458Z,4.44
2023-04-30T23:08:16.297Z,4.39
2023-04-30T23:11:20.884Z,4.45
2023-04-30T23:14:25.937Z,4.42
2023-04-30T23:17:28.517Z,4.33
2023-04-30T23:20:31.389Z,4.29
2023-04-30T23:23:34.008Z,4.26
2023-04-30T23:26:36.840Z,4.20
2023-04-30T23:29:39.410Z,4.05
2023-04-30T23:32:42.330Z,4.05
2023-04-30T23:35:46.086Z,4.01
2023-04-30T23:38:49.848Z,3.76
2023-04-30T23:41:55.121Z,3.67
2023-04-30T23:44:57.981Z,3.57
2023-04-30T23:48:00.697Z,3.59
2023-04-30T23:51:05.200Z,3.68
2023-04-30T23:54:08.762Z,3.59
2023-04-30T23:57:11.590Z,3.42
